sensor_id;sensor_type;location;lat;lon;timestamp;temperature;humidity
25058;DHT22;13057;50.978;11.034;2022-12-18T00:01:00;-4.30;99.90
25058;DHT22;13057;50.978;11.034;2022-12-18T00:03:34;-4.30;99.90
25058;DHT22;13057;50.978;11.034;2022-12-18T00:06:00;-4.40;99.90
25058;DHT22;13057;50.978;11.034;2022-12-18T00:08:26;-4.40;99.90
25058;DHT22;13057;50.978;11.034;2022-12-18T00:10:52;-4.50;99.90
25058;DHT22;13057;50.978;11.034;2022-12-18T00:13:17;-4.60;99.90
25058;DHT22;13057;50.978;11.034;2022-12-18T00:15:43;-4.60;99.90
25058;DHT22;13057;50.978;11.034;2022-12-18T00:18:09;-4.50;99.90
25058;DHT22;13057;50.978;11.034;2022-12-18T00:20:36;-4.50;99.90
25058;DHT22;13057;50.978;11.034;2022-12-18T00:23:02;-4.50;99.90
25058;DHT22;13057;50.978;11.034;2022-12-18T00:25:28;-4.60;99.90
25058;DHT22;13057;50.978;11.034;2022-12-18T00:27:54;-4.60;99.90
25058;DHT22;13057;50.978;11.034;2022-12-18T00:30:20;-4.60;99.90
25058;DHT22;13057;50.978;11.034;2022-12-18T00:32:45;-4.70;99.90
25058;DHT22;13057;50.978;11.034;2022-12-18T00:35:12;-4.80;99.90
25058;DHT22;13057;50.978;11.034;2022-12-18T00:37:37;-4.80;99.90
25058;DHT22;13057;50.978;11.034;2022-12-18T00:40:03;-4.80;99.90
25058;DHT22;13057;50.978;11.034;2022-12-18T00:42:29;-4.70;99.90
25058;DHT22;13057;50.978;11.034;2022-12-18T00:45:08;-4.60;99.90
25058;DHT22;13057;50.978;11.034;2022-12-18T00:47:33;-4.60;99.90
25058;DHT22;13057;50.978;11.034;2022-12-18T00:49:59;-4.70;99.90
25058;DHT22;13057;50.978;11.034;2022-12-18T00:52:25;-4.70;99.90
25058;DHT22;13057;50.978;11.034;2022-12-18T00:54:51;-4.70;99.90
25058;DHT22;13057;50.978;11.034;2022-12-18T00:57:17;-4.70;99.90
25058;DHT22;13057;50.978;11.034;2022-12-18T00:59:42;-4.80;99.90
25058;DHT22;13057;50.978;11.034;2022-12-18T01:02:08;-4.80;99.90
25058;DHT22;13057;50.978;11.034;2022-12-18T01:04:34;-4.90;99.90
25058;DHT22;13057;50.978;11.034;2022-12-18T01:07:00;-4.90;99.90
25058;DHT22;13057;50.978;11.034;2022-12-18T01:09:26;-4.90;99.90
25058;DHT22;13057;50.978;11.034;2022-12-18T01:11:52;-4.90;99.90
25058;DHT22;13057;50.978;11.034;2022-12-18T01:14:18;-4.90;99.90
25058;DHT22;13057;50.978;11.034;2022-12-18T01:16:44;-4.80;99.90
25058;DHT22;13057;50.978;11.034;2022-12-18T01:19:10;-4.90;99.90
25058;DHT22;13057;50.978;11.034;2022-12-18T01:21:36;-4.90;99.90
25058;DHT22;13057;50.978;11.034;2022-12-18T01:24:01;-5.00;99.90
25058;DHT22;13057;50.978;11.034;2022-12-18T01:26:27;-5.00;99.90
25058;DHT22;13057;50.978;11.034;2022-12-18T01:28:55;-5.10;99.90
25058;DHT22;13057;50.978;11.034;2022-12-18T01:31:24;-5.20;99.90
25058;DHT22;13057;50.978;11.034;2022-12-18T01:33:51;-5.20;99.90
25058;DHT22;13057;50.978;11.034;2022-12-18T01:36:23;-5.10;99.90
25058;DHT22;13057;50.978;11.034;2022-12-18T01:38:51;-5.10;99.90
25058;DHT22;13057;50.978;11.034;2022-12-18T01:41:19;-5.20;99.90
25058;DHT22;13057;50.978;11.034;2022-12-18T01:43:50;-5.20;99.90
25058;DHT22;13057;50.978;11.034;2022-12-18T01:46:18;-5.20;99.90
25058;DHT22;13057;50.978;11.034;2022-12-18T01:48:47;-5.20;99.90
25058;DHT22;13057;50.978;11.034;2022-12-18T01:51:14;-5.20;99.90
25058;DHT22;13057;50.978;11.034;2022-12-18T01:53:41;-5.30;99.90
25058;DHT22;13057;50.978;11.034;2022-12-18T01:56:08;-5.40;99.90
25058;DHT22;13057;50.978;11.034;2022-12-18T01:58:43;-5.30;99.90
25058;DHT22;13057;50.978;11.034;2022-12-18T02:01:12;-5.40;99.90
25058;DHT22;13057;50.978;11.034;2022-12-18T02:03:41;-5.50;99.90
25058;DHT22;13057;50.978;11.034;2022-12-18T02:06:19;-5.50;99.90
25058;DHT22;13057;50.978;11.034;2022-12-18T02:09:00;-5.50;99.90
25058;DHT22;13057;50.978;11.034;2022-12-18T02:11:45;-5.40;99.90
25058;DHT22;13057;50.978;11.034;2022-12-18T02:14:28;-5.40;99.90
25058;DHT22;13057;50.978;11.034;2022-12-18T02:17:07;-5.50;99.90
25058;DHT22;13057;50.978;11.034;2022-12-18T02:19:47;-5.60;99.90
25058;DHT22;13057;50.978;11.034;2022-12-18T02:22:29;-5.70;99.90
25058;DHT22;13057;50.978;11.034;2022-12-18T02:25:21;-5.60;99.90
25058;DHT22;13057;50.978;11.034;2022-12-18T02:27:51;-5.60;99.90
25058;DHT22;13057;50.978;11.034;2022-12-18T02:30:18;-5.70;99.90
25058;DHT22;13057;50.978;11.034;2022-12-18T02:32:49;-5.70;99.90
25058;DHT22;13057;50.978;11.034;2022-12-18T02:35:21;-5.70;99.90
25058;DHT22;13057;50.978;11.034;2022-12-18T02:37:47;-5.70;99.90
25058;DHT22;13057;50.978;11.034;2022-12-18T02:40:14;-5.60;99.90
25058;DHT22;13057;50.978;11.034;2022-12-18T02:42:41;-5.60;99.90
25058;DHT22;13057;50.978;11.034;2022-12-18T02:45:07;-5.70;99.90
25058;DHT22;13057;50.978;11.034;2022-12-18T02:47:37;-5.60;99.90
25058;DHT22;13057;50.978;11.034;2022-12-18T02:50:16;-5.60;99.90
25058;DHT22;13057;50.978;11.034;2022-12-18T02:53:01;-5.60;99.90
25058;DHT22;13057;50.978;11.034;2022-12-18T02:55:56;-5.60;99.90
25058;DHT22;13057;50.978;11.034;2022-12-18T02:58:30;-5.70;99.90
25058;DHT22;13057;50.978;11.034;2022-12-18T03:01:09;-5.70;99.90
25058;DHT22;13057;50.978;11.034;2022-12-18T03:03:41;-5.70;99.90
25058;DHT22;13057;50.978;11.034;2022-12-18T03:06:12;-5.70;99.90
25058;DHT22;13057;50.978;11.034;2022-12-18T03:08:45;-5.70;99.90
25058;DHT22;13057;50.978;11.034;2022-12-18T03:11:13;-5.80;99.90
25058;DHT22;13057;50.978;11.034;2022-12-18T03:13:43;-5.70;99.90
25058;DHT22;13057;50.978;11.034;2022-12-18T03:16:14;-5.70;99.90
25058;DHT22;13057;50.978;11.034;2022-12-18T03:18:51;-5.70;99.90
25058;DHT22;13057;50.978;11.034;2022-12-18T03:21:22;-5.80;99.90
25058;DHT22;13057;50.978;11.034;2022-12-18T03:23:52;-5.90;99.90
25058;DHT22;13057;50.978;11.034;2022-12-18T03:26:23;-5.90;99.90
25058;DHT22;13057;50.978;11.034;2022-12-18T03:28:55;-5.90;99.90
25058;DHT22;13057;50.978;11.034;2022-12-18T03:31:23;-6.00;99.90
25058;DHT22;13057;50.978;11.034;2022-12-18T03:33:55;-6.10;99.90
25058;DHT22;13057;50.978;11.034;2022-12-18T03:36:21;-6.10;99.90
25058;DHT22;13057;50.978;11.034;2022-12-18T03:38:48;-6.10;99.90
25058;DHT22;13057;50.978;11.034;2022-12-18T03:41:20;-6.10;99.90
25058;DHT22;13057;50.978;11.034;2022-12-18T03:43:54;-6.10;99.90
25058;DHT22;13057;50.978;11.034;2022-12-18T03:46:27;-6.10;99.90
25058;DHT22;13057;50.978;11.034;2022-12-18T03:49:14;-6.10;99.90
25058;DHT22;13057;50.978;11.034;2022-12-18T03:51:50;-6.10;99.90
25058;DHT22;13057;50.978;11.034;2022-12-18T03:54:18;-6.20;99.90
25058;DHT22;13057;50.978;11.034;2022-12-18T03:56:49;-6.20;99.90
25058;DHT22;13057;50.978;11.034;2022-12-18T03:59:17;-6.20;99.90
25058;DHT22;13057;50.978;11.034;2022-12-18T04:01:47;-6.10;99.90
25058;DHT22;13057;50.978;11.034;2022-12-18T04:04:16;-6.20;99.90
25058;DHT22;13057;50.978;11.034;2022-12-18T04:06:44;-6.40;99.90
25058;DHT22;13057;50.978;11.034;2022-12-18T04:09:11;-6.50;99.90
25058;DHT22;13057;50.978;11.034;2022-12-18T04:11:37;-6.50;99.90
25058;DHT22;13057;50.978;11.034;2022-12-18T04:14:03;-6.40;99.90
25058;DHT22;13057;50.978;11.034;2022-12-18T04:16:29;-6.40;99.90
25058;DHT22;13057;50.978;11.034;2022-12-18T04:18:55;-6.40;99.90
25058;DHT22;13057;50.978;11.034;2022-12-18T04:21:21;-6.40;99.90
25058;DHT22;13057;50.978;11.034;2022-12-18T04:23:48;-6.40;99.90
25058;DHT22;13057;50.978;11.034;2022-12-18T04:26:14;-6.40;99.90
25058;DHT22;13057;50.978;11.034;2022-12-18T04:28:40;-6.50;99.90
25058;DHT22;13057;50.978;11.034;2022-12-18T04:31:06;-6.60;99.90
25058;DHT22;13057;50.978;11.034;2022-12-18T04:33:31;-6.80;99.90
25058;DHT22;13057;50.978;11.034;2022-12-18T04:35:57;-6.70;99.90
25058;DHT22;13057;50.978;11.034;2022-12-18T04:38:23;-6.70;99.90
25058;DHT22;13057;50.978;11.034;2022-12-18T04:40:49;-6.80;99.90
25058;DHT22;13057;50.978;11.034;2022-12-18T04:43:15;-6.80;99.90
25058;DHT22;13057;50.978;11.034;2022-12-18T04:45:41;-6.90;99.90
25058;DHT22;13057;50.978;11.034;2022-12-18T04:48:07;-6.80;99.90
25058;DHT22;13057;50.978;11.034;2022-12-18T04:50:33;-6.80;99.90
25058;DHT22;13057;50.978;11.034;2022-12-18T04:52:59;-6.70;99.90
25058;DHT22;13057;50.978;11.034;2022-12-18T04:55:25;-6.70;99.90
25058;DHT22;13057;50.978;11.034;2022-12-18T04:57:51;-6.70;99.90
25058;DHT22;13057;50.978;11.034;2022-12-18T05:00:17;-6.60;99.90
25058;DHT22;13057;50.978;11.034;2022-12-18T05:02:43;-6.70;99.90
25058;DHT22;13057;50.978;11.034;2022-12-18T05:05:09;-6.60;99.90
25058;DHT22;13057;50.978;11.034;2022-12-18T05:07:35;-6.50;99.90
25058;DHT22;13057;50.978;11.034;2022-12-18T05:10:01;-6.50;99.90
25058;DHT22;13057;50.978;11.034;2022-12-18T05:12:27;-6.60;99.90
25058;DHT22;13057;50.978;11.034;2022-12-18T05:14:53;-6.70;99.90
25058;DHT22;13057;50.978;11.034;2022-12-18T05:17:18;-6.80;99.90
25058;DHT22;13057;50.978;11.034;2022-12-18T05:19:44;-6.80;99.90
25058;DHT22;13057;50.978;11.034;2022-12-18T05:22:10;-6.70;99.90
25058;DHT22;13057;50.978;11.034;2022-12-18T05:24:36;-6.60;99.90
25058;DHT22;13057;50.978;11.034;2022-12-18T05:27:01;-6.60;99.90
25058;DHT22;13057;50.978;11.034;2022-12-18T05:29:28;-6.70;99.90
25058;DHT22;13057;50.978;11.034;2022-12-18T05:31:53;-6.80;99.90
25058;DHT22;13057;50.978;11.034;2022-12-18T05:34:19;-6.90;99.90
25058;DHT22;13057;50.978;11.034;2022-12-18T05:36:45;-6.80;99.90
25058;DHT22;13057;50.978;11.034;2022-12-18T05:39:11;-6.70;99.90
25058;DHT22;13057;50.978;11.034;2022-12-18T05:41:37;-6.80;99.90
25058;DHT22;13057;50.978;11.034;2022-12-18T05:44:03;-6.90;99.90
25058;DHT22;13057;50.978;11.034;2022-12-18T05:46:29;-6.80;99.90
25058;DHT22;13057;50.978;11.034;2022-12-18T05:48:55;-6.90;99.90
25058;DHT22;13057;50.978;11.034;2022-12-18T05:51:21;-7.00;99.90
25058;DHT22;13057;50.978;11.034;2022-12-18T05:53:48;-7.00;99.90
25058;DHT22;13057;50.978;11.034;2022-12-18T05:56:20;-6.90;99.90
25058;DHT22;13057;50.978;11.034;2022-12-18T05:58:47;-6.80;99.90
25058;DHT22;13057;50.978;11.034;2022-12-18T06:01:20;-7.00;99.50
25058;DHT22;13057;50.978;11.034;2022-12-18T06:03:46;-7.20;99.80
25058;DHT22;13057;50.978;11.034;2022-12-18T06:06:17;-7.30;99.90
25058;DHT22;13057;50.978;11.034;2022-12-18T06:08:44;-7.30;99.90
25058;DHT22;13057;50.978;11.034;2022-12-18T06:11:10;-7.20;99.90
25058;DHT22;13057;50.978;11.034;2022-12-18T06:13:37;-7.20;99.90
25058;DHT22;13057;50.978;11.034;2022-12-18T06:16:05;-7.10;99.90
25058;DHT22;13057;50.978;11.034;2022-12-18T06:18:31;-7.20;99.90
25058;DHT22;13057;50.978;11.034;2022-12-18T06:20:58;-7.30;99.90
25058;DHT22;13057;50.978;11.034;2022-12-18T06:23:25;-7.50;99.90
25058;DHT22;13057;50.978;11.034;2022-12-18T06:25:51;-7.50;99.90
25058;DHT22;13057;50.978;11.034;2022-12-18T06:28:17;-7.60;99.90
25058;DHT22;13057;50.978;11.034;2022-12-18T06:30:44;-7.50;99.90
25058;DHT22;13057;50.978;11.034;2022-12-18T06:33:10;-7.40;99.90
25058;DHT22;13057;50.978;11.034;2022-12-18T06:35:36;-7.40;99.90
25058;DHT22;13057;50.978;11.034;2022-12-18T06:38:03;-7.50;99.90
25058;DHT22;13057;50.978;11.034;2022-12-18T06:40:29;-7.50;99.90
25058;DHT22;13057;50.978;11.034;2022-12-18T06:42:55;-7.40;99.90
25058;DHT22;13057;50.978;11.034;2022-12-18T06:45:21;-7.30;99.80
25058;DHT22;13057;50.978;11.034;2022-12-18T06:47:47;-7.30;99.60
25058;DHT22;13057;50.978;11.034;2022-12-18T06:50:13;-7.30;99.70
25058;DHT22;13057;50.978;11.034;2022-12-18T06:52:39;-7.40;99.40
25058;DHT22;13057;50.978;11.034;2022-12-18T06:55:09;-7.50;99.40
25058;DHT22;13057;50.978;11.034;2022-12-18T06:57:34;-7.60;99.40
25058;DHT22;13057;50.978;11.034;2022-12-18T07:00:00;-7.70;99.50
25058;DHT22;13057;50.978;11.034;2022-12-18T07:02:26;-7.80;99.60
25058;DHT22;13057;50.978;11.034;2022-12-18T07:04:52;-7.80;99.60
25058;DHT22;13057;50.978;11.034;2022-12-18T07:07:19;-7.90;99.90
25058;DHT22;13057;50.978;11.034;2022-12-18T07:09:45;-8.00;99.90
25058;DHT22;13057;50.978;11.034;2022-12-18T07:12:11;-8.00;99.90
25058;DHT22;13057;50.978;11.034;2022-12-18T07:14:37;-8.00;99.90
25058;DHT22;13057;50.978;11.034;2022-12-18T07:17:03;-7.90;99.80
25058;DHT22;13057;50.978;11.034;2022-12-18T07:19:29;-7.90;99.50
25058;DHT22;13057;50.978;11.034;2022-12-18T07:21:55;-7.90;99.50
25058;DHT22;13057;50.978;11.034;2022-12-18T07:24:21;-8.10;99.20
25058;DHT22;13057;50.978;11.034;2022-12-18T07:26:47;-8.30;99.20
25058;DHT22;13057;50.978;11.034;2022-12-18T07:29:12;-8.30;99.50
25058;DHT22;13057;50.978;11.034;2022-12-18T07:31:39;-8.40;99.50
25058;DHT22;13057;50.978;11.034;2022-12-18T07:34:05;-8.50;99.50
25058;DHT22;13057;50.978;11.034;2022-12-18T07:36:30;-8.70;99.60
25058;DHT22;13057;50.978;11.034;2022-12-18T07:38:56;-8.70;99.90
25058;DHT22;13057;50.978;11.034;2022-12-18T07:41:22;-8.50;99.90
25058;DHT22;13057;50.978;11.034;2022-12-18T07:43:48;-8.40;99.70
25058;DHT22;13057;50.978;11.034;2022-12-18T07:46:15;-8.40;99.60
25058;DHT22;13057;50.978;11.034;2022-12-18T07:48:42;-8.30;99.40
25058;DHT22;13057;50.978;11.034;2022-12-18T07:51:08;-8.30;99.30
25058;DHT22;13057;50.978;11.034;2022-12-18T07:53:35;-8.30;99.30
25058;DHT22;13057;50.978;11.034;2022-12-18T07:56:04;-8.30;99.20
25058;DHT22;13057;50.978;11.034;2022-12-18T07:58:31;-8.20;99.40
25058;DHT22;13057;50.978;11.034;2022-12-18T08:01:06;-8.30;99.40
25058;DHT22;13057;50.978;11.034;2022-12-18T08:03:32;-8.40;99.60
25058;DHT22;13057;50.978;11.034;2022-12-18T08:06:01;-8.30;99.90
25058;DHT22;13057;50.978;11.034;2022-12-18T08:08:28;-8.20;99.70
25058;DHT22;13057;50.978;11.034;2022-12-18T08:10:54;-8.20;99.50
25058;DHT22;13057;50.978;11.034;2022-12-18T08:13:20;-8.10;99.50
25058;DHT22;13057;50.978;11.034;2022-12-18T08:15:46;-8.20;99.50
25058;DHT22;13057;50.978;11.034;2022-12-18T08:18:12;-8.40;99.40
25058;DHT22;13057;50.978;11.034;2022-12-18T08:20:38;-8.40;99.90
25058;DHT22;13057;50.978;11.034;2022-12-18T08:23:04;-8.40;99.90
25058;DHT22;13057;50.978;11.034;2022-12-18T08:25:29;-8.20;99.90
25058;DHT22;13057;50.978;11.034;2022-12-18T08:27:55;-8.20;99.90
25058;DHT22;13057;50.978;11.034;2022-12-18T08:30:22;-8.20;99.80
25058;DHT22;13057;50.978;11.034;2022-12-18T08:32:51;-8.20;99.90
25058;DHT22;13057;50.978;11.034;2022-12-18T08:35:18;-8.00;99.80
25058;DHT22;13057;50.978;11.034;2022-12-18T08:37:44;-7.90;99.50
25058;DHT22;13057;50.978;11.034;2022-12-18T08:40:10;-8.00;99.20
25058;DHT22;13057;50.978;11.034;2022-12-18T08:42:36;-8.00;99.50
25058;DHT22;13057;50.978;11.034;2022-12-18T08:45:14;-7.90;99.70
25058;DHT22;13057;50.978;11.034;2022-12-18T08:47:40;-7.90;99.80
25058;DHT22;13057;50.978;11.034;2022-12-18T08:50:06;-7.90;99.20
25058;DHT22;13057;50.978;11.034;2022-12-18T08:52:32;-8.10;99.50
25058;DHT22;13057;50.978;11.034;2022-12-18T08:54:58;-8.20;99.90
25058;DHT22;13057;50.978;11.034;2022-12-18T08:57:24;-7.90;99.90
25058;DHT22;13057;50.978;11.034;2022-12-18T08:59:50;-7.60;99.80
25058;DHT22;13057;50.978;11.034;2022-12-18T09:02:15;-7.20;99.40
25058;DHT22;13057;50.978;11.034;2022-12-18T09:04:41;-6.80;98.50
25058;DHT22;13057;50.978;11.034;2022-12-18T09:07:07;-6.70;98.10
25058;DHT22;13057;50.978;11.034;2022-12-18T09:09:35;-6.50;97.60
25058;DHT22;13057;50.978;11.034;2022-12-18T09:12:01;-6.60;97.10
25058;DHT22;13057;50.978;11.034;2022-12-18T09:14:27;-6.40;97.40
25058;DHT22;13057;50.978;11.034;2022-12-18T09:16:53;-6.40;97.30
25058;DHT22;13057;50.978;11.034;2022-12-18T09:19:18;-6.10;97.10
25058;DHT22;13057;50.978;11.034;2022-12-18T09:21:44;-6.00;96.60
25058;DHT22;13057;50.978;11.034;2022-12-18T09:24:13;-6.10;96.70
25058;DHT22;13057;50.978;11.034;2022-12-18T09:26:39;-6.30;96.30
25058;DHT22;13057;50.978;11.034;2022-12-18T09:29:05;-6.40;96.60
25058;DHT22;13057;50.978;11.034;2022-12-18T09:31:33;-6.40;97.10
25058;DHT22;13057;50.978;11.034;2022-12-18T09:33:59;-6.40;96.90
25058;DHT22;13057;50.978;11.034;2022-12-18T09:36:25;-6.50;97.50
25058;DHT22;13057;50.978;11.034;2022-12-18T09:38:51;-6.60;97.60
25058;DHT22;13057;50.978;11.034;2022-12-18T09:41:39;-6.40;98.10
25058;DHT22;13057;50.978;11.034;2022-12-18T09:44:16;-6.40;97.90
25058;DHT22;13057;50.978;11.034;2022-12-18T09:46:48;-6.40;97.90
25058;DHT22;13057;50.978;11.034;2022-12-18T09:49:19;-6.30;97.90
25058;DHT22;13057;50.978;11.034;2022-12-18T09:51:54;-6.30;98.00
25058;DHT22;13057;50.978;11.034;2022-12-18T09:54:28;-6.20;98.20
25058;DHT22;13057;50.978;11.034;2022-12-18T09:56:56;-6.20;98.10
25058;DHT22;13057;50.978;11.034;2022-12-18T09:59:26;-6.30;98.40
25058;DHT22;13057;50.978;11.034;2022-12-18T10:01:52;-6.40;98.40
25058;DHT22;13057;50.978;11.034;2022-12-18T10:04:19;-6.40;98.70
25058;DHT22;13057;50.978;11.034;2022-12-18T10:07:02;-6.30;98.80
25058;DHT22;13057;50.978;11.034;2022-12-18T10:09:43;-6.40;98.90
25058;DHT22;13057;50.978;11.034;2022-12-18T10:12:31;-6.30;99.20
25058;DHT22;13057;50.978;11.034;2022-12-18T10:15:07;-6.20;99.00
25058;DHT22;13057;50.978;11.034;2022-12-18T10:17:46;-6.40;99.10
25058;DHT22;13057;50.978;11.034;2022-12-18T10:20:33;-6.30;99.30
25058;DHT22;13057;50.978;11.034;2022-12-18T10:23:18;-6.30;99.30
25058;DHT22;13057;50.978;11.034;2022-12-18T10:26:02;-6.50;99.40
25058;DHT22;13057;50.978;11.034;2022-12-18T10:28:32;-6.50;99.90
25058;DHT22;13057;50.978;11.034;2022-12-18T10:30:58;-6.30;99.90
25058;DHT22;13057;50.978;11.034;2022-12-18T10:33:29;-6.20;99.80
25058;DHT22;13057;50.978;11.034;2022-12-18T10:35:55;-6.00;99.80
25058;DHT22;13057;50.978;11.034;2022-12-18T10:38:24;-5.90;99.30
25058;DHT22;13057;50.978;11.034;2022-12-18T10:40:55;-5.90;99.70
25058;DHT22;13057;50.978;11.034;2022-12-18T10:43:28;-5.80;99.60
25058;DHT22;13057;50.978;11.034;2022-12-18T10:46:02;-5.70;99.30
25058;DHT22;13057;50.978;11.034;2022-12-18T10:48:32;-5.70;99.20
25058;DHT22;13057;50.978;11.034;2022-12-18T10:50:59;-5.70;99.70
25058;DHT22;13057;50.978;11.034;2022-12-18T10:53:28;-5.70;99.70
25058;DHT22;13057;50.978;11.034;2022-12-18T10:55:56;-5.80;99.80
25058;DHT22;13057;50.978;11.034;2022-12-18T10:58:28;-5.90;99.90
25058;DHT22;13057;50.978;11.034;2022-12-18T11:01:13;-5.90;99.90
25058;DHT22;13057;50.978;11.034;2022-12-18T11:03:42;-5.80;99.90
25058;DHT22;13057;50.978;11.034;2022-12-18T11:06:11;-5.70;99.90
25058;DHT22;13057;50.978;11.034;2022-12-18T11:08:39;-5.60;99.90
25058;DHT22;13057;50.978;11.034;2022-12-18T11:11:19;-5.50;99.90
25058;DHT22;13057;50.978;11.034;2022-12-18T11:13:57;-5.50;99.90
25058;DHT22;13057;50.978;11.034;2022-12-18T11:16:25;-5.50;99.90
25058;DHT22;13057;50.978;11.034;2022-12-18T11:18:52;-5.50;99.90
25058;DHT22;13057;50.978;11.034;2022-12-18T11:21:18;-5.50;99.90
25058;DHT22;13057;50.978;11.034;2022-12-18T11:23:51;-5.50;99.90
25058;DHT22;13057;50.978;11.034;2022-12-18T11:26:17;-5.50;99.90
25058;DHT22;13057;50.978;11.034;2022-12-18T11:28:47;-5.60;99.90
25058;DHT22;13057;50.978;11.034;2022-12-18T11:31:24;-5.50;99.90
25058;DHT22;13057;50.978;11.034;2022-12-18T11:36:42;-5.50;99.90
25058;DHT22;13057;50.978;11.034;2022-12-18T11:39:12;-5.40;99.90
25058;DHT22;13057;50.978;11.034;2022-12-18T11:41:50;-5.50;99.90
25058;DHT22;13057;50.978;11.034;2022-12-18T11:44:36;-5.40;99.90
25058;DHT22;13057;50.978;11.034;2022-12-18T11:47:28;-5.30;99.90
25058;DHT22;13057;50.978;11.034;2022-12-18T11:50:00;-5.30;99.90
25058;DHT22;13057;50.978;11.034;2022-12-18T11:52:34;-5.40;99.90
25058;DHT22;13057;50.978;11.034;2022-12-18T11:55:11;-5.40;99.90
25058;DHT22;13057;50.978;11.034;2022-12-18T11:57:52;-5.40;99.90
25058;DHT22;13057;50.978;11.034;2022-12-18T12:00:22;-5.40;99.90
25058;DHT22;13057;50.978;11.034;2022-12-18T12:03:18;-5.30;99.90
25058;DHT22;13057;50.978;11.034;2022-12-18T12:05:51;-5.10;99.90
25058;DHT22;13057;50.978;11.034;2022-12-18T12:08:37;-5.10;99.90
25058;DHT22;13057;50.978;11.034;2022-12-18T12:20:00;-5.00;99.90
25058;DHT22;13057;50.978;11.034;2022-12-18T12:22:55;-5.10;99.90
25058;DHT22;13057;50.978;11.034;2022-12-18T12:25:35;-5.10;99.90
25058;DHT22;13057;50.978;11.034;2022-12-18T12:28:29;-4.90;99.90
25058;DHT22;13057;50.978;11.034;2022-12-18T12:31:26;-4.80;99.90
25058;DHT22;13057;50.978;11.034;2022-12-18T12:34:09;-4.80;99.90
25058;DHT22;13057;50.978;11.034;2022-12-18T12:37:01;-4.70;99.90
25058;DHT22;13057;50.978;11.034;2022-12-18T12:39:35;-4.70;99.90
25058;DHT22;13057;50.978;11.034;2022-12-18T12:42:13;-4.50;99.90
25058;DHT22;13057;50.978;11.034;2022-12-18T12:44:54;-4.60;99.90
25058;DHT22;13057;50.978;11.034;2022-12-18T12:47:27;-4.80;99.90
25058;DHT22;13057;50.978;11.034;2022-12-18T12:49:54;-4.90;99.90
25058;DHT22;13057;50.978;11.034;2022-12-18T12:52:35;-5.00;99.90
25058;DHT22;13057;50.978;11.034;2022-12-18T12:55:16;-4.90;99.90
25058;DHT22;13057;50.978;11.034;2022-12-18T12:57:57;-5.00;99.90
25058;DHT22;13057;50.978;11.034;2022-12-18T13:00:28;-4.80;99.90
25058;DHT22;13057;50.978;11.034;2022-12-18T13:03:19;-4.70;99.90
25058;DHT22;13057;50.978;11.034;2022-12-18T13:06:16;-4.80;99.90
25058;DHT22;13057;50.978;11.034;2022-12-18T13:08:55;-4.80;99.90
25058;DHT22;13057;50.978;11.034;2022-12-18T13:11:34;-4.80;99.90
25058;DHT22;13057;50.978;11.034;2022-12-18T13:17:14;-4.80;99.90
25058;DHT22;13057;50.978;11.034;2022-12-18T13:19:40;-4.70;99.90
25058;DHT22;13057;50.978;11.034;2022-12-18T13:22:22;-4.70;99.90
25058;DHT22;13057;50.978;11.034;2022-12-18T13:24:57;-4.60;99.90
25058;DHT22;13057;50.978;11.034;2022-12-18T13:27:51;-4.60;99.90
25058;DHT22;13057;50.978;11.034;2022-12-18T13:30:44;-4.60;99.90
25058;DHT22;13057;50.978;11.034;2022-12-18T13:33:36;-4.60;99.90
25058;DHT22;13057;50.978;11.034;2022-12-18T13:36:23;-4.60;99.90
25058;DHT22;13057;50.978;11.034;2022-12-18T13:39:10;-4.50;99.90
25058;DHT22;13057;50.978;11.034;2022-12-18T13:41:36;-4.40;99.90
25058;DHT22;13057;50.978;11.034;2022-12-18T13:46:52;-4.50;99.90
25058;DHT22;13057;50.978;11.034;2022-12-18T13:49:28;-4.70;99.90
25058;DHT22;13057;50.978;11.034;2022-12-18T13:51:57;-4.70;99.90
25058;DHT22;13057;50.978;11.034;2022-12-18T13:54:33;-4.60;99.90
25058;DHT22;13057;50.978;11.034;2022-12-18T13:57:00;-4.70;99.90
25058;DHT22;13057;50.978;11.034;2022-12-18T13:59:34;-4.80;99.90
25058;DHT22;13057;50.978;11.034;2022-12-18T14:02:07;-4.80;99.90
25058;DHT22;13057;50.978;11.034;2022-12-18T14:04:35;-4.90;99.90
25058;DHT22;13057;50.978;11.034;2022-12-18T14:07:05;-5.10;99.90
25058;DHT22;13057;50.978;11.034;2022-12-18T14:09:37;-5.10;99.90
25058;DHT22;13057;50.978;11.034;2022-12-18T14:12:05;-5.20;99.90
25058;DHT22;13057;50.978;11.034;2022-12-18T14:14:46;-5.20;99.90
25058;DHT22;13057;50.978;11.034;2022-12-18T14:17:13;-5.20;99.90
25058;DHT22;13057;50.978;11.034;2022-12-18T14:19:44;-5.00;99.90
25058;DHT22;13057;50.978;11.034;2022-12-18T14:22:19;-4.90;99.90
25058;DHT22;13057;50.978;11.034;2022-12-18T14:24:46;-4.90;99.90
25058;DHT22;13057;50.978;11.034;2022-12-18T14:27:21;-4.90;99.90
25058;DHT22;13057;50.978;11.034;2022-12-18T14:29:47;-4.80;99.90
25058;DHT22;13057;50.978;11.034;2022-12-18T14:32:17;-4.70;99.90
25058;DHT22;13057;50.978;11.034;2022-12-18T14:34:46;-4.70;99.90
25058;DHT22;13057;50.978;11.034;2022-12-18T14:37:14;-4.60;99.90
25058;DHT22;13057;50.978;11.034;2022-12-18T14:39:40;-4.70;99.90
25058;DHT22;13057;50.978;11.034;2022-12-18T14:42:17;-4.70;99.90
25058;DHT22;13057;50.978;11.034;2022-12-18T14:44:43;-5.00;99.90
25058;DHT22;13057;50.978;11.034;2022-12-18T14:47:14;-5.00;99.90
25058;DHT22;13057;50.978;11.034;2022-12-18T14:49:41;-4.80;99.90
25058;DHT22;13057;50.978;11.034;2022-12-18T14:52:28;-4.90;99.90
25058;DHT22;13057;50.978;11.034;2022-12-18T14:54:56;-5.00;99.90
25058;DHT22;13057;50.978;11.034;2022-12-18T14:57:25;-4.90;99.90
25058;DHT22;13057;50.978;11.034;2022-12-18T15:00:05;-4.90;99.90
25058;DHT22;13057;50.978;11.034;2022-12-18T15:02:35;-4.90;99.90
25058;DHT22;13057;50.978;11.034;2022-12-18T15:07:42;-4.80;99.90
25058;DHT22;13057;50.978;11.034;2022-12-18T15:10:15;-4.80;99.90
25058;DHT22;13057;50.978;11.034;2022-12-18T15:12:44;-4.90;99.90
25058;DHT22;13057;50.978;11.034;2022-12-18T15:18:17;-4.80;99.90
25058;DHT22;13057;50.978;11.034;2022-12-18T15:20:50;-4.80;99.90
25058;DHT22;13057;50.978;11.034;2022-12-18T15:23:23;-5.00;99.90
25058;DHT22;13057;50.978;11.034;2022-12-18T15:26:02;-5.00;99.90
25058;DHT22;13057;50.978;11.034;2022-12-18T15:28:36;-5.00;99.90
25058;DHT22;13057;50.978;11.034;2022-12-18T15:31:05;-4.90;99.90
25058;DHT22;13057;50.978;11.034;2022-12-18T15:33:34;-4.70;99.90
25058;DHT22;13057;50.978;11.034;2022-12-18T15:36:04;-4.70;99.90
25058;DHT22;13057;50.978;11.034;2022-12-18T15:38:31;-4.60;99.90
25058;DHT22;13057;50.978;11.034;2022-12-18T15:40:57;-4.70;99.90
25058;DHT22;13057;50.978;11.034;2022-12-18T15:43:24;-4.70;99.90
25058;DHT22;13057;50.978;11.034;2022-12-18T15:46:05;-4.80;99.90
25058;DHT22;13057;50.978;11.034;2022-12-18T15:48:34;-4.80;99.90
25058;DHT22;13057;50.978;11.034;2022-12-18T15:51:01;-4.80;99.90
25058;DHT22;13057;50.978;11.034;2022-12-18T15:53:30;-4.90;99.90
25058;DHT22;13057;50.978;11.034;2022-12-18T15:55:58;-4.90;99.90
25058;DHT22;13057;50.978;11.034;2022-12-18T15:58:36;-4.90;99.90